sensor_id;sensor_type;location;lat;lon;timestamp;P1;durP1;ratioP1;P2;durP2;ratioP2
5414;SDS011;2730;51.512;7.504;2023-06-10T00:01:15;9.93;;;7.70;;
5414;SDS011;2730;51.512;7.504;2023-06-10T00:03:43;8.30;;;7.40;;
5414;SDS011;2730;51.512;7.504;2023-06-10T00:06:09;8.87;;;7.67;;
5414;SDS011;2730;51.512;7.504;2023-06-10T00:08:36;10.10;;;7.67;;
5414;SDS011;2730;51.512;7.504;2023-06-10T00:11:04;9.50;;;7.60;;
5414;SDS011;2730;51.512;7.504;2023-06-10T00:13:32;8.90;;;7.80;;
5414;SDS011;2730;51.512;7.504;2023-06-10T00:15:59;9.27;;;8.20;;
5414;SDS011;2730;51.512;7.504;2023-06-10T00:18:26;9.20;;;7.67;;
5414;SDS011;2730;51.512;7.504;2023-06-10T00:20:56;8.83;;;7.50;;
5414;SDS011;2730;51.512;7.504;2023-06-10T00:23:28;13.87;;;8.33;;
5414;SDS011;2730;51.512;7.504;2023-06-10T00:25:56;11.83;;;8.30;;
5414;SDS011;2730;51.512;7.504;2023-06-10T00:28:22;9.30;;;8.33;;
5414;SDS011;2730;51.512;7.504;2023-06-10T00:30:51;8.50;;;7.70;;
5414;SDS011;2730;51.512;7.504;2023-06-10T00:33:17;9.23;;;7.80;;
5414;SDS011;2730;51.512;7.504;2023-06-10T00:35:44;10.17;;;7.90;;
5414;SDS011;2730;51.512;7.504;2023-06-10T00:38:12;9.60;;;8.60;;
5414;SDS011;2730;51.512;7.504;2023-06-10T00:40:39;10.37;;;8.43;;
5414;SDS011;2730;51.512;7.504;2023-06-10T00:43:06;10.60;;;8.00;;
5414;SDS011;2730;51.512;7.504;2023-06-10T00:45:33;12.60;;;8.37;;
5414;SDS011;2730;51.512;7.504;2023-06-10T00:48:02;10.17;;;7.93;;
5414;SDS011;2730;51.512;7.504;2023-06-10T00:50:30;11.57;;;8.73;;
5414;SDS011;2730;51.512;7.504;2023-06-10T00:52:58;10.57;;;8.90;;
5414;SDS011;2730;51.512;7.504;2023-06-10T00:55:25;9.53;;;8.53;;
5414;SDS011;2730;51.512;7.504;2023-06-10T00:57:52;12.47;;;8.97;;
5414;SDS011;2730;51.512;7.504;2023-06-10T01:00:19;13.23;;;9.33;;
5414;SDS011;2730;51.512;7.504;2023-06-10T01:02:46;12.30;;;8.60;;
5414;SDS011;2730;51.512;7.504;2023-06-10T01:05:15;15.43;;;9.47;;
5414;SDS011;2730;51.512;7.504;2023-06-10T01:07:43;11.77;;;9.50;;
5414;SDS011;2730;51.512;7.504;2023-06-10T01:10:19;13.70;;;9.47;;
5414;SDS011;2730;51.512;7.504;2023-06-10T01:12:55;10.97;;;8.93;;
5414;SDS011;2730;51.512;7.504;2023-06-10T01:15:27;13.10;;;10.03;;
5414;SDS011;2730;51.512;7.504;2023-06-10T01:17:55;19.60;;;10.03;;
5414;SDS011;2730;51.512;7.504;2023-06-10T01:20:25;13.57;;;9.80;;
5414;SDS011;2730;51.512;7.504;2023-06-10T01:22:55;13.47;;;10.70;;
5414;SDS011;2730;51.512;7.504;2023-06-10T01:25:23;11.13;;;9.93;;
5414;SDS011;2730;51.512;7.504;2023-06-10T01:27:53;11.50;;;9.33;;
5414;SDS011;2730;51.512;7.504;2023-06-10T01:30:25;20.23;;;11.67;;
5414;SDS011;2730;51.512;7.504;2023-06-10T01:32:56;14.93;;;10.03;;
5414;SDS011;2730;51.512;7.504;2023-06-10T01:35:25;15.40;;;10.17;;
5414;SDS011;2730;51.512;7.504;2023-06-10T01:37:55;12.83;;;10.33;;
5414;SDS011;2730;51.512;7.504;2023-06-10T01:40:24;18.67;;;11.50;;
5414;SDS011;2730;51.512;7.504;2023-06-10T01:42:51;13.13;;;10.40;;
5414;SDS011;2730;51.512;7.504;2023-06-10T01:45:18;15.73;;;10.57;;
5414;SDS011;2730;51.512;7.504;2023-06-10T01:47:45;18.80;;;10.23;;
5414;SDS011;2730;51.512;7.504;2023-06-10T01:50:12;16.10;;;10.50;;
5414;SDS011;2730;51.512;7.504;2023-06-10T01:52:40;15.37;;;11.37;;
5414;SDS011;2730;51.512;7.504;2023-06-10T01:55:08;15.60;;;11.10;;
5414;SDS011;2730;51.512;7.504;2023-06-10T01:57:35;15.17;;;11.20;;
5414;SDS011;2730;51.512;7.504;2023-06-10T02:00:01;12.73;;;10.70;;
5414;SDS011;2730;51.512;7.504;2023-06-10T02:02:29;15.30;;;11.77;;
5414;SDS011;2730;51.512;7.504;2023-06-10T02:04:56;17.67;;;11.83;;
5414;SDS011;2730;51.512;7.504;2023-06-10T02:07:24;17.00;;;12.80;;
5414;SDS011;2730;51.512;7.504;2023-06-10T02:09:51;18.57;;;12.27;;
5414;SDS011;2730;51.512;7.504;2023-06-10T02:12:19;19.83;;;11.83;;
5414;SDS011;2730;51.512;7.504;2023-06-10T02:14:46;19.57;;;12.43;;
5414;SDS011;2730;51.512;7.504;2023-06-10T02:17:13;20.73;;;12.70;;
5414;SDS011;2730;51.512;7.504;2023-06-10T02:19:40;15.70;;;11.90;;
5414;SDS011;2730;51.512;7.504;2023-06-10T02:22:08;15.73;;;12.23;;
5414;SDS011;2730;51.512;7.504;2023-06-10T02:24:35;15.93;;;11.70;;
5414;SDS011;2730;51.512;7.504;2023-06-10T02:27:03;19.23;;;12.90;;
5414;SDS011;2730;51.512;7.504;2023-06-10T02:29:33;15.83;;;11.43;;
5414;SDS011;2730;51.512;7.504;2023-06-10T02:32:00;18.73;;;13.20;;
5414;SDS011;2730;51.512;7.504;2023-06-10T02:34:28;16.40;;;13.80;;
5414;SDS011;2730;51.512;7.504;2023-06-10T02:36:55;15.60;;;12.80;;
5414;SDS011;2730;51.512;7.504;2023-06-10T02:39:22;17.33;;;12.80;;
5414;SDS011;2730;51.512;7.504;2023-06-10T02:41:49;15.50;;;12.87;;
5414;SDS011;2730;51.512;7.504;2023-06-10T02:44:16;18.83;;;13.10;;
5414;SDS011;2730;51.512;7.504;2023-06-10T02:46:45;19.20;;;12.70;;
5414;SDS011;2730;51.512;7.504;2023-06-10T02:49:12;18.83;;;13.73;;
5414;SDS011;2730;51.512;7.504;2023-06-10T02:51:39;20.47;;;13.87;;
5414;SDS011;2730;51.512;7.504;2023-06-10T02:54:06;15.20;;;12.17;;
5414;SDS011;2730;51.512;7.504;2023-06-10T02:56:32;22.47;;;14.10;;
5414;SDS011;2730;51.512;7.504;2023-06-10T02:58:59;17.27;;;13.60;;
5414;SDS011;2730;51.512;7.504;2023-06-10T03:01:26;22.33;;;13.30;;
5414;SDS011;2730;51.512;7.504;2023-06-10T03:03:54;17.13;;;13.40;;
5414;SDS011;2730;51.512;7.504;2023-06-10T03:06:21;19.60;;;14.53;;
5414;SDS011;2730;51.512;7.504;2023-06-10T03:08:51;18.63;;;13.50;;
5414;SDS011;2730;51.512;7.504;2023-06-10T03:11:18;22.33;;;13.77;;
5414;SDS011;2730;51.512;7.504;2023-06-10T03:13:45;17.40;;;13.90;;
5414;SDS011;2730;51.512;7.504;2023-06-10T03:16:12;19.40;;;13.87;;
5414;SDS011;2730;51.512;7.504;2023-06-10T03:18:39;18.90;;;14.00;;
5414;SDS011;2730;51.512;7.504;2023-06-10T03:21:07;18.10;;;13.20;;
5414;SDS011;2730;51.512;7.504;2023-06-10T03:23:34;23.60;;;14.73;;
5414;SDS011;2730;51.512;7.504;2023-06-10T03:26:02;24.07;;;14.00;;
5414;SDS011;2730;51.512;7.504;2023-06-10T03:28:29;19.77;;;14.33;;
5414;SDS011;2730;51.512;7.504;2023-06-10T03:30:56;21.83;;;14.07;;
5414;SDS011;2730;51.512;7.504;2023-06-10T03:33:23;23.10;;;14.43;;
5414;SDS011;2730;51.512;7.504;2023-06-10T03:35:51;19.13;;;14.07;;
5414;SDS011;2730;51.512;7.504;2023-06-10T03:38:20;21.40;;;14.13;;
5414;SDS011;2730;51.512;7.504;2023-06-10T03:40:47;22.70;;;14.67;;
5414;SDS011;2730;51.512;7.504;2023-06-10T03:43:13;20.70;;;14.30;;
5414;SDS011;2730;51.512;7.504;2023-06-10T03:45:40;24.37;;;14.87;;
5414;SDS011;2730;51.512;7.504;2023-06-10T03:48:07;22.60;;;16.17;;
5414;SDS011;2730;51.512;7.504;2023-06-10T03:50:34;21.83;;;14.47;;
5414;SDS011;2730;51.512;7.504;2023-06-10T03:53:01;22.83;;;15.50;;
5414;SDS011;2730;51.512;7.504;2023-06-10T03:55:30;28.03;;;14.60;;
5414;SDS011;2730;51.512;7.504;2023-06-10T03:57:56;20.00;;;15.20;;
5414;SDS011;2730;51.512;7.504;2023-06-10T04:00:24;21.30;;;14.77;;
5414;SDS011;2730;51.512;7.504;2023-06-10T04:02:50;22.27;;;15.47;;
5414;SDS011;2730;51.512;7.504;2023-06-10T04:05:18;19.57;;;14.03;;
5414;SDS011;2730;51.512;7.504;2023-06-10T04:07:46;20.57;;;15.37;;
5414;SDS011;2730;51.512;7.504;2023-06-10T04:10:13;19.73;;;15.37;;
5414;SDS011;2730;51.512;7.504;2023-06-10T04:12:42;22.20;;;14.93;;
5414;SDS011;2730;51.512;7.504;2023-06-10T04:15:09;20.13;;;15.47;;
5414;SDS011;2730;51.512;7.504;2023-06-10T04:17:38;27.67;;;13.57;;
5414;SDS011;2730;51.512;7.504;2023-06-10T04:20:05;22.70;;;14.77;;
5414;SDS011;2730;51.512;7.504;2023-06-10T04:22:34;18.80;;;13.77;;
5414;SDS011;2730;51.512;7.504;2023-06-10T04:25:01;24.53;;;14.57;;
5414;SDS011;2730;51.512;7.504;2023-06-10T04:27:29;19.67;;;13.87;;
5414;SDS011;2730;51.512;7.504;2023-06-10T04:29:57;19.37;;;14.00;;
5414;SDS011;2730;51.512;7.504;2023-06-10T04:32:23;20.33;;;13.13;;
5414;SDS011;2730;51.512;7.504;2023-06-10T04:34:51;18.97;;;14.10;;
5414;SDS011;2730;51.512;7.504;2023-06-10T04:37:18;17.17;;;14.00;;
5414;SDS011;2730;51.512;7.504;2023-06-10T04:39:45;23.47;;;13.17;;
5414;SDS011;2730;51.512;7.504;2023-06-10T04:42:12;26.47;;;12.80;;
5414;SDS011;2730;51.512;7.504;2023-06-10T04:44:38;16.33;;;12.17;;
5414;SDS011;2730;51.512;7.504;2023-06-10T04:47:07;18.67;;;12.97;;
5414;SDS011;2730;51.512;7.504;2023-06-10T04:49:34;18.30;;;11.90;;
5414;SDS011;2730;51.512;7.504;2023-06-10T04:52:01;19.57;;;12.23;;
5414;SDS011;2730;51.512;7.504;2023-06-10T04:54:29;19.73;;;11.70;;
5414;SDS011;2730;51.512;7.504;2023-06-10T04:56:57;15.40;;;12.17;;
5414;SDS011;2730;51.512;7.504;2023-06-10T04:59:24;20.90;;;11.80;;
5414;SDS011;2730;51.512;7.504;2023-06-10T05:01:51;20.73;;;11.27;;
5414;SDS011;2730;51.512;7.504;2023-06-10T05:04:19;17.00;;;11.33;;
5414;SDS011;2730;51.512;7.504;2023-06-10T05:06:46;14.87;;;10.80;;
5414;SDS011;2730;51.512;7.504;2023-06-10T05:09:13;15.30;;;11.23;;
5414;SDS011;2730;51.512;7.504;2023-06-10T05:11:40;15.10;;;10.97;;
5414;SDS011;2730;51.512;7.504;2023-06-10T05:14:07;18.10;;;10.93;;
5414;SDS011;2730;51.512;7.504;2023-06-10T05:16:34;19.40;;;10.30;;
5414;SDS011;2730;51.512;7.504;2023-06-10T05:19:00;15.10;;;10.37;;
5414;SDS011;2730;51.512;7.504;2023-06-10T05:21:29;16.03;;;10.50;;
5414;SDS011;2730;51.512;7.504;2023-06-10T05:23:56;11.87;;;9.70;;
5414;SDS011;2730;51.512;7.504;2023-06-10T05:26:23;13.43;;;9.40;;
5414;SDS011;2730;51.512;7.504;2023-06-10T05:28:50;18.73;;;10.20;;
5414;SDS011;2730;51.512;7.504;2023-06-10T05:31:17;12.80;;;10.30;;
5414;SDS011;2730;51.512;7.504;2023-06-10T05:33:44;11.47;;;9.13;;
5414;SDS011;2730;51.512;7.504;2023-06-10T05:36:11;10.30;;;8.70;;
5414;SDS011;2730;51.512;7.504;2023-06-10T05:38:39;12.50;;;9.83;;
5414;SDS011;2730;51.512;7.504;2023-06-10T05:41:05;12.20;;;9.80;;
5414;SDS011;2730;51.512;7.504;2023-06-10T05:43:32;16.40;;;9.50;;
5414;SDS011;2730;51.512;7.504;2023-06-10T05:46:01;14.40;;;9.17;;
5414;SDS011;2730;51.512;7.504;2023-06-10T05:48:28;12.33;;;8.80;;
5414;SDS011;2730;51.512;7.504;2023-06-10T05:50:55;12.53;;;8.77;;
5414;SDS011;2730;51.512;7.504;2023-06-10T05:53:21;10.90;;;8.90;;
5414;SDS011;2730;51.512;7.504;2023-06-10T05:55:49;10.27;;;9.20;;
5414;SDS011;2730;51.512;7.504;2023-06-10T05:58:17;13.17;;;8.90;;
5414;SDS011;2730;51.512;7.504;2023-06-10T06:00:44;12.07;;;9.10;;
5414;SDS011;2730;51.512;7.504;2023-06-10T06:03:11;12.47;;;9.70;;
5414;SDS011;2730;51.512;7.504;2023-06-10T06:05:38;10.37;;;8.43;;
5414;SDS011;2730;51.512;7.504;2023-06-10T06:08:05;13.60;;;8.80;;
5414;SDS011;2730;51.512;7.504;2023-06-10T06:10:32;12.17;;;9.63;;
5414;SDS011;2730;51.512;7.504;2023-06-10T06:13:00;13.97;;;9.00;;
5414;SDS011;2730;51.512;7.504;2023-06-10T06:15:28;9.37;;;8.37;;
5414;SDS011;2730;51.512;7.504;2023-06-10T06:17:54;12.57;;;9.00;;
5414;SDS011;2730;51.512;7.504;2023-06-10T06:20:22;9.80;;;7.50;;
5414;SDS011;2730;51.512;7.504;2023-06-10T06:22:49;9.60;;;8.60;;
5414;SDS011;2730;51.512;7.504;2023-06-10T06:25:15;8.60;;;7.80;;
5414;SDS011;2730;51.512;7.504;2023-06-10T06:27:42;11.70;;;7.50;;
5414;SDS011;2730;51.512;7.504;2023-06-10T06:30:11;16.80;;;7.13;;
5414;SDS011;2730;51.512;7.504;2023-06-10T06:32:38;9.27;;;6.83;;
5414;SDS011;2730;51.512;7.504;2023-06-10T06:35:05;7.63;;;6.60;;
5414;SDS011;2730;51.512;7.504;2023-06-10T06:37:33;8.20;;;6.10;;
5414;SDS011;2730;51.512;7.504;2023-06-10T06:40:00;8.67;;;6.77;;
5414;SDS011;2730;51.512;7.504;2023-06-10T06:42:27;8.73;;;7.60;;
5414;SDS011;2730;51.512;7.504;2023-06-10T06:44:54;9.67;;;7.37;;
5414;SDS011;2730;51.512;7.504;2023-06-10T06:47:22;8.73;;;7.00;;
5414;SDS011;2730;51.512;7.504;2023-06-10T06:49:48;9.73;;;6.80;;
5414;SDS011;2730;51.512;7.504;2023-06-10T06:52:15;8.47;;;7.23;;
5414;SDS011;2730;51.512;7.504;2023-06-10T06:54:42;9.27;;;6.50;;
5414;SDS011;2730;51.512;7.504;2023-06-10T06:57:09;7.50;;;6.80;;
5414;SDS011;2730;51.512;7.504;2023-06-10T06:59:36;7.03;;;6.30;;
5414;SDS011;2730;51.512;7.504;2023-06-10T07:02:03;6.77;;;6.17;;
5414;SDS011;2730;51.512;7.504;2023-06-10T07:04:31;8.70;;;6.30;;
5414;SDS011;2730;51.512;7.504;2023-06-10T07:06:58;6.10;;;5.60;;
5414;SDS011;2730;51.512;7.504;2023-06-10T07:09:25;8.30;;;5.63;;
5414;SDS011;2730;51.512;7.504;2023-06-10T07:11:53;10.40;;;6.03;;
5414;SDS011;2730;51.512;7.504;2023-06-10T07:14:20;5.57;;;5.00;;
5414;SDS011;2730;51.512;7.504;2023-06-10T07:16:46;5.63;;;5.13;;
5414;SDS011;2730;51.512;7.504;2023-06-10T07:19:14;6.47;;;5.83;;
5414;SDS011;2730;51.512;7.504;2023-06-10T07:21:42;11.20;;;5.40;;
5414;SDS011;2730;51.512;7.504;2023-06-10T07:24:09;7.83;;;6.03;;
5414;SDS011;2730;51.512;7.504;2023-06-10T07:26:36;6.53;;;5.73;;
5414;SDS011;2730;51.512;7.504;2023-06-10T07:29:03;5.37;;;4.90;;
5414;SDS011;2730;51.512;7.504;2023-06-10T07:31:32;5.10;;;4.70;;
5414;SDS011;2730;51.512;7.504;2023-06-10T07:33:58;5.10;;;4.70;;
5414;SDS011;2730;51.512;7.504;2023-06-10T07:36:25;5.60;;;5.00;;
5414;SDS011;2730;51.512;7.504;2023-06-10T07:38:55;8.07;;;4.87;;
5414;SDS011;2730;51.512;7.504;2023-06-10T07:41:22;8.37;;;4.60;;
5414;SDS011;2730;51.512;7.504;2023-06-10T07:43:50;7.10;;;4.50;;
5414;SDS011;2730;51.512;7.504;2023-06-10T07:46:19;5.97;;;4.67;;
5414;SDS011;2730;51.512;7.504;2023-06-10T07:48:47;5.50;;;5.00;;
5414;SDS011;2730;51.512;7.504;2023-06-10T07:51:14;6.50;;;4.87;;
5414;SDS011;2730;51.512;7.504;2023-06-10T07:53:41;6.50;;;5.13;;
5414;SDS011;2730;51.512;7.504;2023-06-10T07:56:09;5.63;;;4.90;;
5414;SDS011;2730;51.512;7.504;2023-06-10T07:58:36;5.10;;;4.60;;
5414;SDS011;2730;51.512;7.504;2023-06-10T08:01:03;5.80;;;4.77;;
5414;SDS011;2730;51.512;7.504;2023-06-10T08:03:30;5.50;;;5.00;;
5414;SDS011;2730;51.512;7.504;2023-06-10T08:05:56;5.47;;;4.77;;
5414;SDS011;2730;51.512;7.504;2023-06-10T08:08:23;7.37;;;5.10;;
5414;SDS011;2730;51.512;7.504;2023-06-10T08:10:50;6.30;;;5.00;;
5414;SDS011;2730;51.512;7.504;2023-06-10T08:13:18;4.77;;;4.30;;
5414;SDS011;2730;51.512;7.504;2023-06-10T08:15:45;5.73;;;5.17;;
5414;SDS011;2730;51.512;7.504;2023-06-10T08:18:12;5.70;;;4.67;;
5414;SDS011;2730;51.512;7.504;2023-06-10T08:20:39;5.07;;;4.53;;
5414;SDS011;2730;51.512;7.504;2023-06-10T08:23:06;4.73;;;4.23;;
5414;SDS011;2730;51.512;7.504;2023-06-10T08:25:33;6.30;;;5.10;;
5414;SDS011;2730;51.512;7.504;2023-06-10T08:27:59;5.63;;;4.40;;
5414;SDS011;2730;51.512;7.504;2023-06-10T08:30:27;5.17;;;4.20;;
5414;SDS011;2730;51.512;7.504;2023-06-10T08:32:55;4.17;;;3.87;;
5414;SDS011;2730;51.512;7.504;2023-06-10T08:35:22;6.60;;;4.80;;
5414;SDS011;2730;51.512;7.504;2023-06-10T08:37:49;4.50;;;3.70;;
5414;SDS011;2730;51.512;7.504;2023-06-10T08:40:15;4.97;;;4.50;;
5414;SDS011;2730;51.512;7.504;2023-06-10T08:42:43;4.87;;;4.47;;
5414;SDS011;2730;51.512;7.504;2023-06-10T08:45:16;5.00;;;4.00;;
5414;SDS011;2730;51.512;7.504;2023-06-10T08:47:45;4.70;;;4.40;;
5414;SDS011;2730;51.512;7.504;2023-06-10T08:50:15;4.57;;;4.23;;
5414;SDS011;2730;51.512;7.504;2023-06-10T08:52:43;6.30;;;5.07;;
5414;SDS011;2730;51.512;7.504;2023-06-10T08:55:11;4.73;;;4.30;;
5414;SDS011;2730;51.512;7.504;2023-06-10T08:57:41;4.73;;;4.33;;
5414;SDS011;2730;51.512;7.504;2023-06-10T09:00:10;6.53;;;4.57;;
5414;SDS011;2730;51.512;7.504;2023-06-10T09:02:38;7.53;;;4.80;;
5414;SDS011;2730;51.512;7.504;2023-06-10T09:05:06;4.60;;;4.30;;
5414;SDS011;2730;51.512;7.504;2023-06-10T09:07:35;5.13;;;4.67;;
5414;SDS011;2730;51.512;7.504;2023-06-10T09:10:02;6.60;;;4.20;;
5414;SDS011;2730;51.512;7.504;2023-06-10T09:12:32;5.27;;;4.60;;
5414;SDS011;2730;51.512;7.504;2023-06-10T09:14:59;5.03;;;4.63;;
5414;SDS011;2730;51.512;7.504;2023-06-10T09:17:26;7.67;;;4.83;;
5414;SDS011;2730;51.512;7.504;2023-06-10T09:19:53;5.50;;;4.20;;
5414;SDS011;2730;51.512;7.504;2023-06-10T09:22:21;8.60;;;4.90;;
5414;SDS011;2730;51.512;7.504;2023-06-10T09:24:49;4.37;;;4.00;;
5414;SDS011;2730;51.512;7.504;2023-06-10T09:27:15;4.60;;;4.30;;
5414;SDS011;2730;51.512;7.504;2023-06-10T09:29:46;5.30;;;4.90;;
5414;SDS011;2730;51.512;7.504;2023-06-10T09:32:14;4.23;;;3.93;;
5414;SDS011;2730;51.512;7.504;2023-06-10T09:34:41;4.60;;;4.20;;
5414;SDS011;2730;51.512;7.504;2023-06-10T09:37:09;8.13;;;5.40;;
5414;SDS011;2730;51.512;7.504;2023-06-10T09:39:39;4.93;;;4.53;;
5414;SDS011;2730;51.512;7.504;2023-06-10T09:42:15;5.70;;;4.67;;
5414;SDS011;2730;51.512;7.504;2023-06-10T09:44:48;4.53;;;4.23;;
5414;SDS011;2730;51.512;7.504;2023-06-10T09:47:19;4.80;;;4.40;;
5414;SDS011;2730;51.512;7.504;2023-06-10T09:49:46;5.73;;;5.10;;
5414;SDS011;2730;51.512;7.504;2023-06-10T09:52:13;4.57;;;4.27;;
5414;SDS011;2730;51.512;7.504;2023-06-10T09:54:41;5.33;;;4.83;;
5414;SDS011;2730;51.512;7.504;2023-06-10T09:57:10;5.23;;;4.83;;
5414;SDS011;2730;51.512;7.504;2023-06-10T09:59:37;5.03;;;4.53;;
5414;SDS011;2730;51.512;7.504;2023-06-10T10:02:04;5.43;;;5.00;;
5414;SDS011;2730;51.512;7.504;2023-06-10T10:04:31;5.10;;;4.50;;
5414;SDS011;2730;51.512;7.504;2023-06-10T10:07:02;7.60;;;5.50;;
5414;SDS011;2730;51.512;7.504;2023-06-10T10:09:29;4.80;;;4.50;;
5414;SDS011;2730;51.512;7.504;2023-06-10T10:11:57;5.77;;;5.00;;
5414;SDS011;2730;51.512;7.504;2023-06-10T10:14:27;5.33;;;4.83;;
5414;SDS011;2730;51.512;7.504;2023-06-10T10:16:57;4.70;;;4.40;;
5414;SDS011;2730;51.512;7.504;2023-06-10T10:19:27;5.93;;;5.20;;
5414;SDS011;2730;51.512;7.504;2023-06-10T10:22:00;7.27;;;4.93;;
5414;SDS011;2730;51.512;7.504;2023-06-10T10:24:34;5.83;;;4.77;;
5414;SDS011;2730;51.512;7.504;2023-06-10T10:27:04;7.33;;;5.40;;
5414;SDS011;2730;51.512;7.504;2023-06-10T10:29:37;7.00;;;6.40;;
5414;SDS011;2730;51.512;7.504;2023-06-10T10:32:06;5.23;;;4.73;;
5414;SDS011;2730;51.512;7.504;2023-06-10T10:34:35;5.20;;;4.90;;
5414;SDS011;2730;51.512;7.504;2023-06-10T10:37:09;6.13;;;5.00;;
5414;SDS011;2730;51.512;7.504;2023-06-10T10:39:36;5.90;;;5.40;;
5414;SDS011;2730;51.512;7.504;2023-06-10T10:42:05;5.73;;;5.23;;
5414;SDS011;2730;51.512;7.504;2023-06-10T10:44:34;6.87;;;5.60;;
5414;SDS011;2730;51.512;7.504;2023-06-10T10:47:02;7.80;;;5.53;;
5414;SDS011;2730;51.512;7.504;2023-06-10T10:49:30;5.80;;;5.37;;
5414;SDS011;2730;51.512;7.504;2023-06-10T10:51:58;6.60;;;5.70;;
5414;SDS011;2730;51.512;7.504;2023-06-10T10:54:29;13.23;;;5.20;;
5414;SDS011;2730;51.512;7.504;2023-06-10T10:57:11;6.03;;;5.53;;
5414;SDS011;2730;51.512;7.504;2023-06-10T11:02:32;10.27;;;5.80;;
5414;SDS011;2730;51.512;7.504;2023-06-10T11:05:00;6.20;;;5.80;;
5414;SDS011;2730;51.512;7.504;2023-06-10T11:07:29;6.70;;;6.00;;
5414;SDS011;2730;51.512;7.504;2023-06-10T11:09:57;15.33;;;6.67;;
5414;SDS011;2730;51.512;7.504;2023-06-10T11:12:28;7.23;;;5.97;;
5414;SDS011;2730;51.512;7.504;2023-06-10T11:15:15;6.50;;;5.90;;
5414;SDS011;2730;51.512;7.504;2023-06-10T11:20:53;7.87;;;5.47;;
5414;SDS011;2730;51.512;7.504;2023-06-10T11:23:25;7.20;;;6.00;;
5414;SDS011;2730;51.512;7.504;2023-06-10T11:26:15;6.23;;;5.73;;
5414;SDS011;2730;51.512;7.504;2023-06-10T11:29:07;6.90;;;6.20;;
5414;SDS011;2730;51.512;7.504;2023-06-10T11:31:38;7.00;;;6.40;;
5414;SDS011;2730;51.512;7.504;2023-06-10T11:34:09;8.37;;;5.67;;
5414;SDS011;2730;51.512;7.504;2023-06-10T11:36:37;6.13;;;5.60;;
5414;SDS011;2730;51.512;7.504;2023-06-10T11:39:07;6.53;;;5.93;;
5414;SDS011;2730;51.512;7.504;2023-06-10T11:41:35;6.90;;;6.20;;
5414;SDS011;2730;51.512;7.504;2023-06-10T11:44:04;8.80;;;6.07;;
5414;SDS011;2730;51.512;7.504;2023-06-10T11:46:35;8.23;;;5.90;;
5414;SDS011;2730;51.512;7.504;2023-06-10T11:49:03;7.93;;;5.50;;
5414;SDS011;2730;51.512;7.504;2023-06-10T11:51:33;8.00;;;6.37;;
5414;SDS011;2730;51.512;7.504;2023-06-10T11:54:01;6.30;;;5.70;;
5414;SDS011;2730;51.512;7.504;2023-06-10T11:56:31;6.87;;;5.50;;
5414;SDS011;2730;51.512;7.504;2023-06-10T11:58:59;5.97;;;5.47;;
5414;SDS011;2730;51.512;7.504;2023-06-10T12:01:31;6.73;;;6.00;;
5414;SDS011;2730;51.512;7.504;2023-06-10T12:03:59;9.30;;;5.70;;
5414;SDS011;2730;51.512;7.504;2023-06-10T12:06:27;9.10;;;5.20;;
5414;SDS011;2730;51.512;7.504;2023-06-10T12:09:03;8.83;;;5.50;;
5414;SDS011;2730;51.512;7.504;2023-06-10T12:11:30;6.80;;;5.83;;
5414;SDS011;2730;51.512;7.504;2023-06-10T12:13:57;12.10;;;6.20;;
5414;SDS011;2730;51.512;7.504;2023-06-10T12:16:24;9.23;;;5.70;;
5414;SDS011;2730;51.512;7.504;2023-06-10T12:19:00;6.60;;;5.90;;
5414;SDS011;2730;51.512;7.504;2023-06-10T12:21:28;6.53;;;5.43;;
5414;SDS011;2730;51.512;7.504;2023-06-10T12:23:59;6.63;;;5.80;;
5414;SDS011;2730;51.512;7.504;2023-06-10T12:26:34;10.17;;;5.90;;
5414;SDS011;2730;51.512;7.504;2023-06-10T12:29:02;7.80;;;6.10;;
5414;SDS011;2730;51.512;7.504;2023-06-10T12:31:51;6.53;;;6.00;;
5414;SDS011;2730;51.512;7.504;2023-06-10T12:34:35;6.30;;;5.80;;
5414;SDS011;2730;51.512;7.504;2023-06-10T12:37:03;6.83;;;6.00;;
5414;SDS011;2730;51.512;7.504;2023-06-10T12:39:31;5.83;;;5.30;;
5414;SDS011;2730;51.512;7.504;2023-06-10T12:41:58;7.03;;;5.77;;
5414;SDS011;2730;51.512;7.504;2023-06-10T12:44:30;7.20;;;6.30;;
5414;SDS011;2730;51.512;7.504;2023-06-10T12:47:00;6.23;;;5.60;;
5414;SDS011;2730;51.512;7.504;2023-06-10T12:49:35;6.40;;;5.80;;
5414;SDS011;2730;51.512;7.504;2023-06-10T12:52:02;8.70;;;6.23;;
5414;SDS011;2730;51.512;7.504;2023-06-10T12:54:29;7.83;;;6.17;;
5414;SDS011;2730;51.512;7.504;2023-06-10T12:56:56;8.33;;;6.47;;
5414;SDS011;2730;51.512;7.504;2023-06-10T12:59:23;7.30;;;6.60;;
5414;SDS011;2730;51.512;7.504;2023-06-10T13:01:50;6.23;;;5.67;;
5414;SDS011;2730;51.512;7.504;2023-06-10T13:04:18;7.00;;;6.03;;
5414;SDS011;2730;51.512;7.504;2023-06-10T13:06:46;6.10;;;5.60;;
5414;SDS011;2730;51.512;7.504;2023-06-10T13:09:14;7.33;;;6.63;;
5414;SDS011;2730;51.512;7.504;2023-06-10T13:11:41;6.67;;;6.07;;
5414;SDS011;2730;51.512;7.504;2023-06-10T13:14:09;7.57;;;6.20;;
5414;SDS011;2730;51.512;7.504;2023-06-10T13:16:36;6.00;;;5.60;;
5414;SDS011;2730;51.512;7.504;2023-06-10T13:19:04;6.40;;;5.87;;
5414;SDS011;2730;51.512;7.504;2023-06-10T13:21:31;6.47;;;5.87;;
5414;SDS011;2730;51.512;7.504;2023-06-10T13:24:00;7.10;;;6.03;;
5414;SDS011;2730;51.512;7.504;2023-06-10T13:26:27;7.10;;;6.40;;
5414;SDS011;2730;51.512;7.504;2023-06-10T13:28:53;9.50;;;6.40;;
5414;SDS011;2730;51.512;7.504;2023-06-10T13:31:20;12.30;;;6.50;;
5414;SDS011;2730;51.512;7.504;2023-06-10T13:33:47;7.10;;;6.20;;
5414;SDS011;2730;51.512;7.504;2023-06-10T13:36:14;7.20;;;6.53;;
5414;SDS011;2730;51.512;7.504;2023-06-10T13:38:41;6.43;;;5.83;;
5414;SDS011;2730;51.512;7.504;2023-06-10T13:41:09;6.27;;;5.70;;
5414;SDS011;2730;51.512;7.504;2023-06-10T13:43:37;6.90;;;6.20;;
5414;SDS011;2730;51.512;7.504;2023-06-10T13:46:04;5.90;;;5.40;;
5414;SDS011;2730;51.512;7.504;2023-06-10T13:48:31;7.43;;;6.10;;
5414;SDS011;2730;51.512;7.504;2023-06-10T13:50:58;7.27;;;6.33;;
5414;SDS011;2730;51.512;7.504;2023-06-10T13:53:25;6.23;;;5.73;;
5414;SDS011;2730;51.512;7.504;2023-06-10T13:55:52;13.33;;;6.50;;
5414;SDS011;2730;51.512;7.504;2023-06-10T13:58:20;10.17;;;6.20;;
5414;SDS011;2730;51.512;7.504;2023-06-10T14:00:47;6.00;;;5.60;;
5414;SDS011;2730;51.512;7.504;2023-06-10T14:03:14;6.37;;;5.77;;
5414;SDS011;2730;51.512;7.504;2023-06-10T14:05:41;6.63;;;6.00;;
5414;SDS011;2730;51.512;7.504;2023-06-10T14:08:08;7.73;;;5.80;;
5414;SDS011;2730;51.512;7.504;2023-06-10T14:10:34;6.93;;;6.37;;
5414;SDS011;2730;51.512;7.504;2023-06-10T14:13:01;10.50;;;6.57;;
5414;SDS011;2730;51.512;7.504;2023-06-10T14:15:29;9.73;;;7.17;;
5414;SDS011;2730;51.512;7.504;2023-06-10T14:17:57;6.87;;;6.27;;
5414;SDS011;2730;51.512;7.504;2023-06-10T14:20:24;7.57;;;5.93;;
5414;SDS011;2730;51.512;7.504;2023-06-10T14:22:51;9.30;;;6.77;;
5414;SDS011;2730;51.512;7.504;2023-06-10T14:25:18;5.40;;;5.00;;
5414;SDS011;2730;51.512;7.504;2023-06-10T14:27:45;9.60;;;6.60;;
5414;SDS011;2730;51.512;7.504;2023-06-10T14:30:12;7.23;;;6.63;;
5414;SDS011;2730;51.512;7.504;2023-06-10T14:32:41;7.43;;;6.50;;
5414;SDS011;2730;51.512;7.504;2023-06-10T14:35:08;8.73;;;5.70;;
5414;SDS011;2730;51.512;7.504;2023-06-10T14:37:35;6.17;;;5.57;;
5414;SDS011;2730;51.512;7.504;2023-06-10T14:40:03;6.13;;;5.63;;
5414;SDS011;2730;51.512;7.504;2023-06-10T14:42:30;6.57;;;4.90;;
5414;SDS011;2730;51.512;7.504;2023-06-10T14:44:58;7.20;;;6.50;;
5414;SDS011;2730;51.512;7.504;2023-06-10T14:47:24;9.70;;;6.57;;
5414;SDS011;2730;51.512;7.504;2023-06-10T14:49:53;7.37;;;6.60;;
5414;SDS011;2730;51.512;7.504;2023-06-10T14:52:19;7.53;;;5.87;;
5414;SDS011;2730;51.512;7.504;2023-06-10T14:54:46;8.17;;;6.30;;
5414;SDS011;2730;51.512;7.504;2023-06-10T14:57:13;6.40;;;5.80;;
5414;SDS011;2730;51.512;7.504;2023-06-10T14:59:40;6.20;;;5.60;;
5414;SDS011;2730;51.512;7.504;2023-06-10T15:02:07;7.87;;;5.60;;
5414;SDS011;2730;51.512;7.504;2023-06-10T15:04:33;6.03;;;5.53;;
5414;SDS011;2730;51.512;7.504;2023-06-10T15:07:02;5.50;;;5.00;;
5414;SDS011;2730;51.512;7.504;2023-06-10T15:09:29;5.90;;;5.40;;
5414;SDS011;2730;51.512;7.504;2023-06-10T15:11:56;6.07;;;5.57;;
5414;SDS011;2730;51.512;7.504;2023-06-10T15:14:24;8.10;;;5.80;;
5414;SDS011;2730;51.512;7.504;2023-06-10T15:16:51;6.37;;;5.87;;